sensor_id;sensor_type;location;lat;lon;timestamp;pressure;altitude;pressure_sealevel;temperature
45850;BMP180;10739;52.198;20.908;2023-08-07T00:01:15;98652.00;;;18.10
45850;BMP180;10739;52.198;20.908;2023-08-07T00:03:42;98654.00;;;18.00
45850;BMP180;10739;52.198;20.908;2023-08-07T00:06:08;98659.00;;;17.80
45850;BMP180;10739;52.198;20.908;2023-08-07T00:08:34;98679.00;;;18.00
45850;BMP180;10739;52.198;20.908;2023-08-07T00:11:09;98677.00;;;18.10
45850;BMP180;10739;52.198;20.908;2023-08-07T00:13:35;98675.00;;;17.90
45850;BMP180;10739;52.198;20.908;2023-08-07T00:16:02;98684.00;;;18.30
45850;BMP180;10739;52.198;20.908;2023-08-07T00:18:29;98679.00;;;18.00
45850;BMP180;10739;52.198;20.908;2023-08-07T00:20:55;98687.00;;;17.80
45850;BMP180;10739;52.198;20.908;2023-08-07T00:23:21;98675.00;;;18.20
45850;BMP180;10739;52.198;20.908;2023-08-07T00:25:47;98680.00;;;18.10
45850;BMP180;10739;52.198;20.908;2023-08-07T00:28:14;98681.00;;;18.20
45850;BMP180;10739;52.198;20.908;2023-08-07T00:30:40;98679.00;;;18.20
45850;BMP180;10739;52.198;20.908;2023-08-07T00:33:06;98677.00;;;18.20
45850;BMP180;10739;52.198;20.908;2023-08-07T00:35:32;98676.00;;;18.00
45850;BMP180;10739;52.198;20.908;2023-08-07T00:37:58;98683.00;;;18.20
45850;BMP180;10739;52.198;20.908;2023-08-07T00:40:24;98680.00;;;17.90
45850;BMP180;10739;52.198;20.908;2023-08-07T00:42:51;98681.00;;;18.10
45850;BMP180;10739;52.198;20.908;2023-08-07T00:45:17;98675.00;;;18.40
45850;BMP180;10739;52.198;20.908;2023-08-07T00:47:44;98668.00;;;18.40
45850;BMP180;10739;52.198;20.908;2023-08-07T00:50:11;98659.00;;;18.90
45850;BMP180;10739;52.198;20.908;2023-08-07T00:52:37;98644.00;;;18.40
45850;BMP180;10739;52.198;20.908;2023-08-07T00:55:04;98644.00;;;18.00
45850;BMP180;10739;52.198;20.908;2023-08-07T00:57:30;98644.00;;;17.70
45850;BMP180;10739;52.198;20.908;2023-08-07T00:59:59;98645.00;;;18.40
45850;BMP180;10739;52.198;20.908;2023-08-07T01:02:25;98640.00;;;18.10
45850;BMP180;10739;52.198;20.908;2023-08-07T01:04:51;98642.00;;;18.10
45850;BMP180;10739;52.198;20.908;2023-08-07T01:07:18;98644.00;;;18.10
45850;BMP180;10739;52.198;20.908;2023-08-07T01:09:44;98639.00;;;18.20
45850;BMP180;10739;52.198;20.908;2023-08-07T01:12:23;98642.00;;;18.50
45850;BMP180;10739;52.198;20.908;2023-08-07T01:17:28;98633.00;;;18.00
45850;BMP180;10739;52.198;20.908;2023-08-07T01:19:56;98629.00;;;18.00
45850;BMP180;10739;52.198;20.908;2023-08-07T01:22:23;98635.00;;;18.00
45850;BMP180;10739;52.198;20.908;2023-08-07T01:24:50;98632.00;;;17.90
45850;BMP180;10739;52.198;20.908;2023-08-07T01:33:22;98654.00;;;18.00
45850;BMP180;10739;52.198;20.908;2023-08-07T01:35:53;98650.00;;;17.80
45850;BMP180;10739;52.198;20.908;2023-08-07T01:38:25;98647.00;;;17.50
45850;BMP180;10739;52.198;20.908;2023-08-07T01:40:56;98648.00;;;17.80
45850;BMP180;10739;52.198;20.908;2023-08-07T01:43:23;98650.00;;;17.80
45850;BMP180;10739;52.198;20.908;2023-08-07T01:45:50;98657.00;;;17.90
45850;BMP180;10739;52.198;20.908;2023-08-07T01:48:16;98665.00;;;17.90
45850;BMP180;10739;52.198;20.908;2023-08-07T01:50:43;98676.00;;;18.00
45850;BMP180;10739;52.198;20.908;2023-08-07T01:53:09;98673.00;;;18.20
45850;BMP180;10739;52.198;20.908;2023-08-07T01:55:35;98668.00;;;17.70
45850;BMP180;10739;52.198;20.908;2023-08-07T01:58:01;98659.00;;;17.70
45850;BMP180;10739;52.198;20.908;2023-08-07T02:00:28;98658.00;;;17.70
45850;BMP180;10739;52.198;20.908;2023-08-07T02:02:54;98648.00;;;18.10
45850;BMP180;10739;52.198;20.908;2023-08-07T02:05:20;98643.00;;;18.20
45850;BMP180;10739;52.198;20.908;2023-08-07T02:07:46;98649.00;;;18.10
45850;BMP180;10739;52.198;20.908;2023-08-07T02:10:13;98649.00;;;17.40
45850;BMP180;10739;52.198;20.908;2023-08-07T02:12:39;98642.00;;;17.40
45850;BMP180;10739;52.198;20.908;2023-08-07T02:15:06;98634.00;;;17.10
45850;BMP180;10739;52.198;20.908;2023-08-07T02:17:33;98640.00;;;17.70
45850;BMP180;10739;52.198;20.908;2023-08-07T02:20:00;98641.00;;;17.80
45850;BMP180;10739;52.198;20.908;2023-08-07T02:22:26;98641.00;;;17.40
45850;BMP180;10739;52.198;20.908;2023-08-07T02:24:53;98651.00;;;17.90
45850;BMP180;10739;52.198;20.908;2023-08-07T02:27:19;98664.00;;;17.80
45850;BMP180;10739;52.198;20.908;2023-08-07T02:29:45;98682.00;;;18.20
45850;BMP180;10739;52.198;20.908;2023-08-07T02:32:11;98686.00;;;17.80
45850;BMP180;10739;52.198;20.908;2023-08-07T02:34:38;98697.00;;;17.80
45850;BMP180;10739;52.198;20.908;2023-08-07T02:37:04;98686.00;;;17.50
45850;BMP180;10739;52.198;20.908;2023-08-07T02:39:30;98675.00;;;17.70
45850;BMP180;10739;52.198;20.908;2023-08-07T02:41:56;98668.00;;;17.80
45850;BMP180;10739;52.198;20.908;2023-08-07T02:44:22;98673.00;;;17.40
45850;BMP180;10739;52.198;20.908;2023-08-07T02:46:48;98667.00;;;17.80
45850;BMP180;10739;52.198;20.908;2023-08-07T02:49:14;98676.00;;;17.30
45850;BMP180;10739;52.198;20.908;2023-08-07T02:51:40;98693.00;;;17.50
45850;BMP180;10739;52.198;20.908;2023-08-07T02:54:06;98694.00;;;18.00
45850;BMP180;10739;52.198;20.908;2023-08-07T02:56:33;98697.00;;;18.20
45850;BMP180;10739;52.198;20.908;2023-08-07T02:58:59;98701.00;;;17.60
45850;BMP180;10739;52.198;20.908;2023-08-07T03:01:27;98696.00;;;17.40
45850;BMP180;10739;52.198;20.908;2023-08-07T03:03:54;98692.00;;;17.40
45850;BMP180;10739;52.198;20.908;2023-08-07T03:06:20;98686.00;;;17.30
45850;BMP180;10739;52.198;20.908;2023-08-07T03:08:46;98680.00;;;17.70
45850;BMP180;10739;52.198;20.908;2023-08-07T03:11:13;98680.00;;;17.20
45850;BMP180;10739;52.198;20.908;2023-08-07T03:13:39;98678.00;;;17.70
45850;BMP180;10739;52.198;20.908;2023-08-07T03:16:06;98683.00;;;17.70
45850;BMP180;10739;52.198;20.908;2023-08-07T03:18:33;98691.00;;;18.40
45850;BMP180;10739;52.198;20.908;2023-08-07T03:21:00;98697.00;;;18.50
45850;BMP180;10739;52.198;20.908;2023-08-07T03:23:27;98698.00;;;18.20
45850;BMP180;10739;52.198;20.908;2023-08-07T03:26:09;98701.00;;;17.60
45850;BMP180;10739;52.198;20.908;2023-08-07T03:28:36;98709.00;;;18.20
45850;BMP180;10739;52.198;20.908;2023-08-07T03:31:03;98715.00;;;18.40
45850;BMP180;10739;52.198;20.908;2023-08-07T03:33:30;98714.00;;;17.80
45850;BMP180;10739;52.198;20.908;2023-08-07T03:35:56;98714.00;;;17.70
45850;BMP180;10739;52.198;20.908;2023-08-07T03:38:22;98719.00;;;17.70
45850;BMP180;10739;52.198;20.908;2023-08-07T03:40:48;98726.00;;;17.50
45850;BMP180;10739;52.198;20.908;2023-08-07T03:43:14;98730.00;;;17.70
45850;BMP180;10739;52.198;20.908;2023-08-07T03:45:42;98736.00;;;18.00
45850;BMP180;10739;52.198;20.908;2023-08-07T03:48:08;98723.00;;;18.10
45850;BMP180;10739;52.198;20.908;2023-08-07T03:50:35;98729.00;;;18.20
45850;BMP180;10739;52.198;20.908;2023-08-07T03:53:04;98741.00;;;18.00
45850;BMP180;10739;52.198;20.908;2023-08-07T03:55:33;98729.00;;;18.20
45850;BMP180;10739;52.198;20.908;2023-08-07T03:57:59;98730.00;;;18.00
45850;BMP180;10739;52.198;20.908;2023-08-07T04:00:25;98743.00;;;18.30
45850;BMP180;10739;52.198;20.908;2023-08-07T04:02:51;98729.00;;;18.50
45850;BMP180;10739;52.198;20.908;2023-08-07T04:05:17;98718.00;;;18.40
45850;BMP180;10739;52.198;20.908;2023-08-07T04:07:44;98713.00;;;18.20
45850;BMP180;10739;52.198;20.908;2023-08-07T04:10:10;98708.00;;;18.10
45850;BMP180;10739;52.198;20.908;2023-08-07T04:12:36;98709.00;;;18.00
45850;BMP180;10739;52.198;20.908;2023-08-07T04:15:03;98717.00;;;18.10
45850;BMP180;10739;52.198;20.908;2023-08-07T04:17:29;98712.00;;;18.20
45850;BMP180;10739;52.198;20.908;2023-08-07T04:19:55;98713.00;;;18.40
45850;BMP180;10739;52.198;20.908;2023-08-07T04:22:21;98726.00;;;18.30
45850;BMP180;10739;52.198;20.908;2023-08-07T04:24:47;98733.00;;;18.10
45850;BMP180;10739;52.198;20.908;2023-08-07T04:27:13;98731.00;;;18.10
45850;BMP180;10739;52.198;20.908;2023-08-07T04:29:39;98733.00;;;18.00
45850;BMP180;10739;52.198;20.908;2023-08-07T04:32:06;98738.00;;;18.30
45850;BMP180;10739;52.198;20.908;2023-08-07T04:34:32;98732.00;;;18.40
45850;BMP180;10739;52.198;20.908;2023-08-07T04:36:59;98729.00;;;18.20
45850;BMP180;10739;52.198;20.908;2023-08-07T04:39:26;98727.00;;;18.10
45850;BMP180;10739;52.198;20.908;2023-08-07T04:41:52;98736.00;;;17.90
45850;BMP180;10739;52.198;20.908;2023-08-07T04:44:18;98746.00;;;18.20
45850;BMP180;10739;52.198;20.908;2023-08-07T04:46:45;98758.00;;;18.60
45850;BMP180;10739;52.198;20.908;2023-08-07T04:49:11;98757.00;;;18.40
45850;BMP180;10739;52.198;20.908;2023-08-07T04:51:37;98742.00;;;18.40
45850;BMP180;10739;52.198;20.908;2023-08-07T04:54:03;98748.00;;;18.60
45850;BMP180;10739;52.198;20.908;2023-08-07T04:56:29;98742.00;;;18.20
45850;BMP180;10739;52.198;20.908;2023-08-07T04:58:57;98746.00;;;18.40
45850;BMP180;10739;52.198;20.908;2023-08-07T05:01:23;98743.00;;;18.70
45850;BMP180;10739;52.198;20.908;2023-08-07T05:03:49;98742.00;;;18.80
45850;BMP180;10739;52.198;20.908;2023-08-07T05:06:15;98751.00;;;18.30
45850;BMP180;10739;52.198;20.908;2023-08-07T05:08:41;98753.00;;;18.50
45850;BMP180;10739;52.198;20.908;2023-08-07T05:11:07;98770.00;;;18.60
45850;BMP180;10739;52.198;20.908;2023-08-07T05:13:33;98760.00;;;18.50
45850;BMP180;10739;52.198;20.908;2023-08-07T05:16:00;98764.00;;;18.60
45850;BMP180;10739;52.198;20.908;2023-08-07T05:18:26;98771.00;;;18.40
45850;BMP180;10739;52.198;20.908;2023-08-07T05:20:52;98767.00;;;18.40
45850;BMP180;10739;52.198;20.908;2023-08-07T05:23:18;98774.00;;;18.20
45850;BMP180;10739;52.198;20.908;2023-08-07T05:25:47;98768.00;;;17.80
45850;BMP180;10739;52.198;20.908;2023-08-07T05:28:13;98778.00;;;18.00
45850;BMP180;10739;52.198;20.908;2023-08-07T05:30:40;98775.00;;;17.90
45850;BMP180;10739;52.198;20.908;2023-08-07T05:33:06;98765.00;;;17.70
45850;BMP180;10739;52.198;20.908;2023-08-07T05:35:32;98765.00;;;17.70
45850;BMP180;10739;52.198;20.908;2023-08-07T05:37:58;98772.00;;;17.70
45850;BMP180;10739;52.198;20.908;2023-08-07T05:40:24;98765.00;;;18.40
45850;BMP180;10739;52.198;20.908;2023-08-07T05:42:50;98769.00;;;18.40
45850;BMP180;10739;52.198;20.908;2023-08-07T05:45:16;98778.00;;;18.70
45850;BMP180;10739;52.198;20.908;2023-08-07T05:47:42;98775.00;;;18.50
45850;BMP180;10739;52.198;20.908;2023-08-07T05:50:09;98773.00;;;18.70
45850;BMP180;10739;52.198;20.908;2023-08-07T05:52:35;98777.00;;;18.40
45850;BMP180;10739;52.198;20.908;2023-08-07T05:55:02;98791.00;;;18.00
45850;BMP180;10739;52.198;20.908;2023-08-07T05:57:28;98774.00;;;17.90
45850;BMP180;10739;52.198;20.908;2023-08-07T05:59:54;98776.00;;;17.90
45850;BMP180;10739;52.198;20.908;2023-08-07T06:02:20;98780.00;;;17.70
45850;BMP180;10739;52.198;20.908;2023-08-07T06:04:46;98776.00;;;18.20
45850;BMP180;10739;52.198;20.908;2023-08-07T06:07:13;98791.00;;;18.30
45850;BMP180;10739;52.198;20.908;2023-08-07T06:09:39;98775.00;;;18.30
45850;BMP180;10739;52.198;20.908;2023-08-07T06:12:05;98794.00;;;18.10
45850;BMP180;10739;52.198;20.908;2023-08-07T06:14:32;98785.00;;;18.10
45850;BMP180;10739;52.198;20.908;2023-08-07T06:16:58;98786.00;;;17.70
45850;BMP180;10739;52.198;20.908;2023-08-07T06:19:26;98800.00;;;17.60
45850;BMP180;10739;52.198;20.908;2023-08-07T06:21:53;98803.00;;;18.30
45850;BMP180;10739;52.198;20.908;2023-08-07T06:24:20;98787.00;;;18.00
45850;BMP180;10739;52.198;20.908;2023-08-07T06:26:46;98774.00;;;18.00
45850;BMP180;10739;52.198;20.908;2023-08-07T06:29:12;98773.00;;;18.40
45850;BMP180;10739;52.198;20.908;2023-08-07T06:31:38;98771.00;;;18.50
45850;BMP180;10739;52.198;20.908;2023-08-07T06:34:05;98796.00;;;18.40
45850;BMP180;10739;52.198;20.908;2023-08-07T06:36:31;98794.00;;;18.00
45850;BMP180;10739;52.198;20.908;2023-08-07T06:38:57;98797.00;;;17.80
45850;BMP180;10739;52.198;20.908;2023-08-07T06:41:23;98803.00;;;17.70
45850;BMP180;10739;52.198;20.908;2023-08-07T06:43:49;98799.00;;;17.80
45850;BMP180;10739;52.198;20.908;2023-08-07T06:46:17;98808.00;;;18.00
45850;BMP180;10739;52.198;20.908;2023-08-07T06:48:44;98807.00;;;18.10
45850;BMP180;10739;52.198;20.908;2023-08-07T06:51:10;98808.00;;;18.00
45850;BMP180;10739;52.198;20.908;2023-08-07T06:53:36;98817.00;;;18.00
45850;BMP180;10739;52.198;20.908;2023-08-07T06:56:02;98817.00;;;18.30
45850;BMP180;10739;52.198;20.908;2023-08-07T06:58:29;98818.00;;;18.40
45850;BMP180;10739;52.198;20.908;2023-08-07T07:00:55;98814.00;;;18.00
45850;BMP180;10739;52.198;20.908;2023-08-07T07:03:21;98819.00;;;18.70
45850;BMP180;10739;52.198;20.908;2023-08-07T07:05:49;98825.00;;;18.70
45850;BMP180;10739;52.198;20.908;2023-08-07T07:08:16;98828.00;;;18.70
45850;BMP180;10739;52.198;20.908;2023-08-07T07:10:42;98819.00;;;18.60
45850;BMP180;10739;52.198;20.908;2023-08-07T07:13:08;98821.00;;;18.30
45850;BMP180;10739;52.198;20.908;2023-08-07T07:15:35;98826.00;;;18.50
45850;BMP180;10739;52.198;20.908;2023-08-07T07:18:02;98815.00;;;18.50
45850;BMP180;10739;52.198;20.908;2023-08-07T07:20:28;98821.00;;;18.60
45850;BMP180;10739;52.198;20.908;2023-08-07T07:22:54;98825.00;;;18.70
45850;BMP180;10739;52.198;20.908;2023-08-07T07:25:21;98824.00;;;18.70
45850;BMP180;10739;52.198;20.908;2023-08-07T07:27:47;98826.00;;;18.30
45850;BMP180;10739;52.198;20.908;2023-08-07T07:30:13;98836.00;;;18.90
45850;BMP180;10739;52.198;20.908;2023-08-07T07:32:39;98835.00;;;19.10
45850;BMP180;10739;52.198;20.908;2023-08-07T07:35:06;98837.00;;;18.70
45850;BMP180;10739;52.198;20.908;2023-08-07T07:37:33;98840.00;;;18.80
45850;BMP180;10739;52.198;20.908;2023-08-07T07:39:59;98838.00;;;19.00
45850;BMP180;10739;52.198;20.908;2023-08-07T07:42:26;98836.00;;;18.50
45850;BMP180;10739;52.198;20.908;2023-08-07T07:44:52;98844.00;;;19.10
45850;BMP180;10739;52.198;20.908;2023-08-07T07:47:18;98863.00;;;19.00
45850;BMP180;10739;52.198;20.908;2023-08-07T07:49:46;98854.00;;;18.60
45850;BMP180;10739;52.198;20.908;2023-08-07T07:52:15;98834.00;;;18.50
45850;BMP180;10739;52.198;20.908;2023-08-07T07:54:42;98842.00;;;19.00
45850;BMP180;10739;52.198;20.908;2023-08-07T07:57:08;98842.00;;;19.40
45850;BMP180;10739;52.198;20.908;2023-08-07T07:59:34;98846.00;;;19.30
45850;BMP180;10739;52.198;20.908;2023-08-07T08:02:00;98853.00;;;18.90
45850;BMP180;10739;52.198;20.908;2023-08-07T08:04:27;98846.00;;;18.90
45850;BMP180;10739;52.198;20.908;2023-08-07T08:06:53;98848.00;;;19.20
45850;BMP180;10739;52.198;20.908;2023-08-07T08:09:20;98849.00;;;19.20
45850;BMP180;10739;52.198;20.908;2023-08-07T08:11:46;98855.00;;;19.60
45850;BMP180;10739;52.198;20.908;2023-08-07T08:14:12;98853.00;;;19.30
45850;BMP180;10739;52.198;20.908;2023-08-07T08:16:38;98848.00;;;19.40
45850;BMP180;10739;52.198;20.908;2023-08-07T08:19:04;98845.00;;;19.40
45850;BMP180;10739;52.198;20.908;2023-08-07T08:21:30;98848.00;;;19.50
45850;BMP180;10739;52.198;20.908;2023-08-07T08:23:57;98845.00;;;20.00
45850;BMP180;10739;52.198;20.908;2023-08-07T08:26:22;98867.00;;;19.70
45850;BMP180;10739;52.198;20.908;2023-08-07T08:28:48;98861.00;;;19.70
45850;BMP180;10739;52.198;20.908;2023-08-07T08:31:15;98856.00;;;19.30
45850;BMP180;10739;52.198;20.908;2023-08-07T08:33:41;98870.00;;;19.40
45850;BMP180;10739;52.198;20.908;2023-08-07T08:36:07;98869.00;;;19.40
45850;BMP180;10739;52.198;20.908;2023-08-07T08:38:33;98880.00;;;19.70
45850;BMP180;10739;52.198;20.908;2023-08-07T08:41:02;98872.00;;;19.80
45850;BMP180;10739;52.198;20.908;2023-08-07T08:43:35;98877.00;;;19.50
45850;BMP180;10739;52.198;20.908;2023-08-07T08:46:08;98874.00;;;19.70
45850;BMP180;10739;52.198;20.908;2023-08-07T08:48:36;98861.00;;;20.10
45850;BMP180;10739;52.198;20.908;2023-08-07T08:51:04;98870.00;;;19.50
45850;BMP180;10739;52.198;20.908;2023-08-07T08:53:32;98866.00;;;19.60
45850;BMP180;10739;52.198;20.908;2023-08-07T08:56:00;98868.00;;;20.30
45850;BMP180;10739;52.198;20.908;2023-08-07T08:58:27;98856.00;;;20.10
45850;BMP180;10739;52.198;20.908;2023-08-07T09:00:54;98869.00;;;20.00
45850;BMP180;10739;52.198;20.908;2023-08-07T09:03:21;98862.00;;;20.80
45850;BMP180;10739;52.198;20.908;2023-08-07T09:05:49;98873.00;;;21.20
45850;BMP180;10739;52.198;20.908;2023-08-07T09:08:18;98872.00;;;21.20
45850;BMP180;10739;52.198;20.908;2023-08-07T09:10:45;98878.00;;;21.10
45850;BMP180;10739;52.198;20.908;2023-08-07T09:13:14;98880.00;;;21.40
45850;BMP180;10739;52.198;20.908;2023-08-07T09:15:44;98884.00;;;21.30
45850;BMP180;10739;52.198;20.908;2023-08-07T09:18:17;98892.00;;;21.50
45850;BMP180;10739;52.198;20.908;2023-08-07T09:20:45;98904.00;;;21.50
45850;BMP180;10739;52.198;20.908;2023-08-07T09:23:11;98898.00;;;21.80
45850;BMP180;10739;52.198;20.908;2023-08-07T09:25:38;98906.00;;;21.80
45850;BMP180;10739;52.198;20.908;2023-08-07T09:28:05;98914.00;;;22.20
45850;BMP180;10739;52.198;20.908;2023-08-07T09:30:34;98925.00;;;22.20
45850;BMP180;10739;52.198;20.908;2023-08-07T09:33:02;98929.00;;;21.50
45850;BMP180;10739;52.198;20.908;2023-08-07T09:35:31;98942.00;;;21.30
45850;BMP180;10739;52.198;20.908;2023-08-07T09:37:58;98963.00;;;21.30
45850;BMP180;10739;52.198;20.908;2023-08-07T09:40:24;98958.00;;;20.90
45850;BMP180;10739;52.198;20.908;2023-08-07T09:42:55;98962.00;;;21.20
45850;BMP180;10739;52.198;20.908;2023-08-07T09:45:26;98971.00;;;20.80
45850;BMP180;10739;52.198;20.908;2023-08-07T09:48:05;98976.00;;;20.80
45850;BMP180;10739;52.198;20.908;2023-08-07T09:50:33;98975.00;;;21.20
45850;BMP180;10739;52.198;20.908;2023-08-07T09:53:00;98978.00;;;21.30
45850;BMP180;10739;52.198;20.908;2023-08-07T09:55:27;98973.00;;;20.80
45850;BMP180;10739;52.198;20.908;2023-08-07T09:57:54;98984.00;;;21.40
45850;BMP180;10739;52.198;20.908;2023-08-07T10:00:21;98964.00;;;21.70
45850;BMP180;10739;52.198;20.908;2023-08-07T10:02:51;98981.00;;;22.00
45850;BMP180;10739;52.198;20.908;2023-08-07T10:05:18;98977.00;;;22.60
45850;BMP180;10739;52.198;20.908;2023-08-07T10:07:45;98969.00;;;21.80
45850;BMP180;10739;52.198;20.908;2023-08-07T10:10:12;98971.00;;;22.60
45850;BMP180;10739;52.198;20.908;2023-08-07T10:12:38;98976.00;;;22.70
45850;BMP180;10739;52.198;20.908;2023-08-07T10:15:06;98974.00;;;22.90
45850;BMP180;10739;52.198;20.908;2023-08-07T10:17:33;98981.00;;;23.30
45850;BMP180;10739;52.198;20.908;2023-08-07T10:19:59;98967.00;;;23.20
45850;BMP180;10739;52.198;20.908;2023-08-07T10:22:29;98968.00;;;23.80
45850;BMP180;10739;52.198;20.908;2023-08-07T10:24:59;98965.00;;;24.40
45850;BMP180;10739;52.198;20.908;2023-08-07T10:27:29;98965.00;;;24.30
45850;BMP180;10739;52.198;20.908;2023-08-07T10:29:57;98963.00;;;23.80
45850;BMP180;10739;52.198;20.908;2023-08-07T10:32:25;98969.00;;;24.10
45850;BMP180;10739;52.198;20.908;2023-08-07T10:34:53;98961.00;;;24.20
45850;BMP180;10739;52.198;20.908;2023-08-07T10:37:41;98969.00;;;23.50
45850;BMP180;10739;52.198;20.908;2023-08-07T10:40:13;98974.00;;;23.20
45850;BMP180;10739;52.198;20.908;2023-08-07T10:45:22;98983.00;;;23.00
45850;BMP180;10739;52.198;20.908;2023-08-07T10:48:06;98980.00;;;22.40
45850;BMP180;10739;52.198;20.908;2023-08-07T10:56:01;98970.00;;;23.80
45850;BMP180;10739;52.198;20.908;2023-08-07T10:58:38;98958.00;;;26.30
45850;BMP180;10739;52.198;20.908;2023-08-07T11:03:59;98972.00;;;24.70
45850;BMP180;10739;52.198;20.908;2023-08-07T11:06:33;98993.00;;;23.80
45850;BMP180;10739;52.198;20.908;2023-08-07T11:09:00;98997.00;;;24.40
45850;BMP180;10739;52.198;20.908;2023-08-07T11:11:29;98997.00;;;25.00
45850;BMP180;10739;52.198;20.908;2023-08-07T11:13:56;98992.00;;;26.20
45850;BMP180;10739;52.198;20.908;2023-08-07T11:16:23;98988.00;;;26.30
45850;BMP180;10739;52.198;20.908;2023-08-07T11:18:49;98993.00;;;26.60
45850;BMP180;10739;52.198;20.908;2023-08-07T11:21:16;98995.00;;;26.60
45850;BMP180;10739;52.198;20.908;2023-08-07T11:23:42;99012.00;;;25.60
45850;BMP180;10739;52.198;20.908;2023-08-07T11:26:10;98996.00;;;25.90
45850;BMP180;10739;52.198;20.908;2023-08-07T11:28:36;98997.00;;;26.60
45850;BMP180;10739;52.198;20.908;2023-08-07T11:31:03;98988.00;;;26.30
45850;BMP180;10739;52.198;20.908;2023-08-07T11:33:29;98994.00;;;27.00
45850;BMP180;10739;52.198;20.908;2023-08-07T11:35:55;98985.00;;;28.00
45850;BMP180;10739;52.198;20.908;2023-08-07T11:38:34;98986.00;;;27.40
45850;BMP180;10739;52.198;20.908;2023-08-07T11:41:02;98995.00;;;27.60
45850;BMP180;10739;52.198;20.908;2023-08-07T11:43:34;98989.00;;;26.90
45850;BMP180;10739;52.198;20.908;2023-08-07T11:46:12;98981.00;;;27.10
45850;BMP180;10739;52.198;20.908;2023-08-07T11:48:41;98980.00;;;27.00
45850;BMP180;10739;52.198;20.908;2023-08-07T11:51:07;98989.00;;;26.80
45850;BMP180;10739;52.198;20.908;2023-08-07T11:53:39;98983.00;;;26.40
45850;BMP180;10739;52.198;20.908;2023-08-07T11:56:11;98989.00;;;26.00
45850;BMP180;10739;52.198;20.908;2023-08-07T11:58:42;98983.00;;;26.10
45850;BMP180;10739;52.198;20.908;2023-08-07T12:01:23;98986.00;;;24.30
45850;BMP180;10739;52.198;20.908;2023-08-07T12:06:35;98994.00;;;24.40
45850;BMP180;10739;52.198;20.908;2023-08-07T12:09:02;99001.00;;;24.30
45850;BMP180;10739;52.198;20.908;2023-08-07T12:11:30;99006.00;;;24.20
45850;BMP180;10739;52.198;20.908;2023-08-07T12:13:56;99005.00;;;23.90
45850;BMP180;10739;52.198;20.908;2023-08-07T12:16:25;99011.00;;;23.50
45850;BMP180;10739;52.198;20.908;2023-08-07T12:18:52;99017.00;;;23.10
45850;BMP180;10739;52.198;20.908;2023-08-07T12:21:23;99027.00;;;23.30
45850;BMP180;10739;52.198;20.908;2023-08-07T12:23:50;99030.00;;;23.50
45850;BMP180;10739;52.198;20.908;2023-08-07T12:26:18;99038.00;;;22.90
45850;BMP180;10739;52.198;20.908;2023-08-07T12:28:44;99037.00;;;22.50
45850;BMP180;10739;52.198;20.908;2023-08-07T12:31:10;99055.00;;;23.10
45850;BMP180;10739;52.198;20.908;2023-08-07T12:33:37;99058.00;;;23.30
45850;BMP180;10739;52.198;20.908;2023-08-07T12:36:03;99065.00;;;23.40
45850;BMP180;10739;52.198;20.908;2023-08-07T12:38:29;99074.00;;;24.00
45850;BMP180;10739;52.198;20.908;2023-08-07T12:40:56;99078.00;;;23.60
45850;BMP180;10739;52.198;20.908;2023-08-07T12:43:22;99080.00;;;24.10
45850;BMP180;10739;52.198;20.908;2023-08-07T12:45:48;99068.00;;;23.90
45850;BMP180;10739;52.198;20.908;2023-08-07T12:48:14;99075.00;;;23.30
45850;BMP180;10739;52.198;20.908;2023-08-07T12:50:41;99077.00;;;23.70
45850;BMP180;10739;52.198;20.908;2023-08-07T12:53:08;99080.00;;;23.50
45850;BMP180;10739;52.198;20.908;2023-08-07T12:55:34;99084.00;;;23.90
45850;BMP180;10739;52.198;20.908;2023-08-07T12:58:00;99080.00;;;24.10
45850;BMP180;10739;52.198;20.908;2023-08-07T13:00:26;99078.00;;;25.60
45850;BMP180;10739;52.198;20.908;2023-08-07T13:02:53;99087.00;;;24.60
45850;BMP180;10739;52.198;20.908;2023-08-07T13:05:22;99078.00;;;24.90
45850;BMP180;10739;52.198;20.908;2023-08-07T13:07:48;99084.00;;;24.10
45850;BMP180;10739;52.198;20.908;2023-08-07T13:10:17;99077.00;;;24.00
45850;BMP180;10739;52.198;20.908;2023-08-07T13:12:47;99086.00;;;24.30
45850;BMP180;10739;52.198;20.908;2023-08-07T13:15:15;99078.00;;;24.20
45850;BMP180;10739;52.198;20.908;2023-08-07T13:17:42;99069.00;;;24.20
45850;BMP180;10739;52.198;20.908;2023-08-07T13:20:11;99071.00;;;24.70
45850;BMP180;10739;52.198;20.908;2023-08-07T13:22:43;99080.00;;;25.30
45850;BMP180;10739;52.198;20.908;2023-08-07T13:25:12;99080.00;;;25.50
45850;BMP180;10739;52.198;20.908;2023-08-07T13:27:40;99089.00;;;25.00
45850;BMP180;10739;52.198;20.908;2023-08-07T13:30:08;99079.00;;;24.90
45850;BMP180;10739;52.198;20.908;2023-08-07T13:32:34;99093.00;;;24.30
45850;BMP180;10739;52.198;20.908;2023-08-07T13:35:00;99087.00;;;23.40
45850;BMP180;10739;52.198;20.908;2023-08-07T13:37:26;99095.00;;;23.40
45850;BMP180;10739;52.198;20.908;2023-08-07T13:39:53;99091.00;;;23.20
45850;BMP180;10739;52.198;20.908;2023-08-07T13:42:20;99099.00;;;22.80
45850;BMP180;10739;52.198;20.908;2023-08-07T13:44:46;99095.00;;;22.70
45850;BMP180;10739;52.198;20.908;2023-08-07T13:47:12;99097.00;;;23.30
45850;BMP180;10739;52.198;20.908;2023-08-07T13:49:39;99091.00;;;23.00
45850;BMP180;10739;52.198;20.908;2023-08-07T13:52:06;99091.00;;;22.80
45850;BMP180;10739;52.198;20.908;2023-08-07T13:54:32;99089.00;;;22.70
45850;BMP180;10739;52.198;20.908;2023-08-07T13:56:58;99102.00;;;23.00
45850;BMP180;10739;52.198;20.908;2023-08-07T13:59:24;99091.00;;;22.80
45850;BMP180;10739;52.198;20.908;2023-08-07T14:01:50;99099.00;;;22.70
45850;BMP180;10739;52.198;20.908;2023-08-07T14:04:17;99107.00;;;23.20
45850;BMP180;10739;52.198;20.908;2023-08-07T14:06:44;99101.00;;;23.60
45850;BMP180;10739;52.198;20.908;2023-08-07T14:09:10;99107.00;;;23.40
45850;BMP180;10739;52.198;20.908;2023-08-07T14:11:38;99107.00;;;23.50
45850;BMP180;10739;52.198;20.908;2023-08-07T14:14:04;99106.00;;;23.60
45850;BMP180;10739;52.198;20.908;2023-08-07T14:16:30;99108.00;;;23.60
45850;BMP180;10739;52.198;20.908;2023-08-07T14:18:57;99114.00;;;24.00